createdAt,value
2023-04-01T00:00:05.689Z,99036.16
2023-04-01T00:02:33.792Z,99029.09
2023-04-01T00:05:02.612Z,99030.06
2023-04-01T00:07:31.788Z,99028.41
2023-04-01T00:09:59.681Z,99031.91
2023-04-01T00:12:27.609Z,99038.13
2023-04-01T00:14:57.086Z,99035.44
2023-04-01T00:17:27.128Z,99040.09
2023-04-01T00:19:57.383Z,99039.28
2023-04-01T00:22:25.843Z,99037.44
2023-04-01T00:24:54.344Z,99034.88
2023-04-01T00:27:22.386Z,99041.06
2023-04-01T00:29:50.400Z,99039.56
2023-04-01T00:32:19.737Z,99035.88
2023-04-01T00:34:47.856Z,99034.19
2023-04-01T00:37:15.820Z,99045.75
2023-04-01T00:39:43.878Z,99037.88
2023-04-01T00:42:13.290Z,99038.72
2023-04-01T00:44:41.750Z,99044.06
2023-04-01T00:47:09.758Z,99037.00
2023-04-01T00:49:42.701Z,99046.88
2023-04-01T00:52:14.912Z,99040.69
2023-04-01T00:54:49.901Z,99046.03
2023-04-01T00:57:23.773Z,99051.38
2023-04-01T00:59:54.764Z,99047.03
2023-04-01T01:02:23.364Z,99048.03
2023-04-01T01:04:52.894Z,99042.66
2023-04-01T01:07:30.859Z,99047.19
2023-04-01T01:10:05.590Z,99056.19
2023-04-01T01:12:39.189Z,99048.16
2023-04-01T01:15:14.319Z,99058.88
2023-04-01T01:17:52.134Z,99055.34
2023-04-01T01:20:50.405Z,99060.72
2023-04-01T01:23:52.967Z,99066.06
2023-04-01T01:26:51.424Z,99059.88
2023-04-01T01:30:02.762Z,99060.72
2023-04-01T01:32:57.210Z,99061.72
2023-04-01T01:35:30.703Z,99064.38
2023-04-01T01:38:02.508Z,99062.69
2023-04-01T01:40:35.173Z,99061.00
2023-04-01T01:43:08.781Z,99059.16
2023-04-01T01:45:42.745Z,99065.38
2023-04-01T01:48:12.354Z,99066.34
2023-04-01T01:50:43.792Z,99069.03
2023-04-01T01:53:13.738Z,99070.88
2023-04-01T01:55:44.087Z,99067.34
2023-04-01T01:58:18.153Z,99075.38
2023-04-01T02:00:50.654Z,99075.22
2023-04-01T02:03:21.798Z,99076.22
2023-04-01T02:05:54.270Z,99082.41
2023-04-01T02:08:27.825Z,99076.22
2023-04-01T02:10:59.956Z,99083.41
2023-04-01T02:13:33.291Z,99087.78
2023-04-01T02:16:05.870Z,99090.47
2023-04-01T02:18:37.635Z,99089.50
2023-04-01T02:21:09.407Z,99088.63
2023-04-01T02:23:39.443Z,99092.16
2023-04-01T02:26:09.516Z,99088.63
2023-04-01T02:28:40.512Z,99093.13
2023-04-01T02:31:10.887Z,99089.63
2023-04-01T02:33:41.130Z,99099.34
2023-04-01T02:36:14.383Z,99093.56
2023-04-01T02:38:43.562Z,99097.38
2023-04-01T02:41:14.081Z,99103.59
2023-04-01T02:43:42.050Z,99092.00
2023-04-01T02:46:10.111Z,99108.09
2023-04-01T02:48:38.394Z,99106.41
2023-04-01T02:51:11.544Z,99109.91
2023-04-01T02:53:39.488Z,99112.59
2023-04-01T02:56:07.720Z,99110.75
2023-04-01T02:58:35.735Z,99113.44
2023-04-01T03:01:03.700Z,99116.13
2023-04-01T03:03:31.685Z,99111.19
2023-04-01T03:06:07.765Z,99107.56
2023-04-01T03:08:37.219Z,99110.91
2023-04-01T03:11:06.129Z,99104.44
2023-04-01T03:13:34.565Z,99111.50
2023-04-01T03:16:03.294Z,99117.41
2023-04-01T03:18:31.295Z,99115.56
2023-04-01T03:20:59.312Z,99118.09
2023-04-01T03:23:27.236Z,99114.47
2023-04-01T03:25:56.502Z,99115.41
2023-04-01T03:28:24.467Z,99116.28
2023-04-01T03:30:52.386Z,99120.66
2023-04-01T03:33:20.487Z,99120.66
2023-04-01T03:35:48.445Z,99122.50
2023-04-01T03:38:17.592Z,99118.81
2023-04-01T03:40:45.848Z,99126.00
2023-04-01T03:43:15.319Z,99128.69
2023-04-01T03:45:46.432Z,99122.50
2023-04-01T03:48:14.472Z,99131.38
2023-04-01T03:50:45.745Z,99126.00
2023-04-01T03:53:13.717Z,99122.50
2023-04-01T03:55:41.960Z,99139.41
2023-04-01T03:58:10.371Z,99128.69
2023-04-01T04:00:39.670Z,99131.38
2023-04-01T04:03:08.743Z,99135.03
2023-04-01T04:05:37.078Z,99131.50
2023-04-01T04:08:05.386Z,99143.06
2023-04-01T04:10:33.332Z,99137.72
2023-04-01T04:13:01.306Z,99133.31
2023-04-01T04:15:29.278Z,99137.00
2023-04-01T04:17:58.685Z,99137.00
2023-04-01T04:20:26.646Z,99144.03
2023-04-01T04:22:54.690Z,99145.03
2023-04-01T04:25:25.331Z,99148.72
2023-04-01T04:27:53.254Z,99149.53
2023-04-01T04:30:21.430Z,99154.91
2023-04-01T04:32:49.411Z,99162.09
2023-04-01T04:35:21.400Z,99154.06
2023-04-01T04:37:49.308Z,99148.72
2023-04-01T04:40:17.465Z,99148.72
2023-04-01T04:42:45.561Z,99154.06
2023-04-01T04:45:14.128Z,99153.22
2023-04-01T04:47:42.168Z,99157.72
2023-04-01T04:50:11.304Z,99156.88
2023-04-01T04:52:40.645Z,99156.88
2023-04-01T04:55:09.508Z,99167.56
2023-04-01T04:57:39.482Z,99160.53
2023-04-01T05:00:08.933Z,99173.09
2023-04-01T05:02:36.989Z,99173.09
2023-04-01T05:05:05.589Z,99165.03
2023-04-01T05:07:33.509Z,99174.91
2023-04-01T05:10:02.944Z,99177.59
2023-04-01T05:12:30.826Z,99181.13
2023-04-01T05:14:58.748Z,99182.09
2023-04-01T05:17:26.870Z,99183.94
2023-04-01T05:19:54.801Z,99185.78
2023-04-01T05:22:22.768Z,99188.47
2023-04-01T05:24:50.817Z,99186.75
2023-04-01T05:27:20.247Z,99190.25
2023-04-01T05:29:48.283Z,99190.25
2023-04-01T05:32:16.494Z,99193.09
2023-04-01T05:34:44.664Z,99198.44
2023-04-01T05:37:15.399Z,99202.81
2023-04-01T05:39:43.426Z,99201.97
2023-04-01T05:42:11.386Z,99210.00
2023-04-01T05:44:40.678Z,99207.47
2023-04-01T05:47:08.768Z,99211.13
2023-04-01T05:49:36.702Z,99216.47
2023-04-01T05:52:04.760Z,99224.50
2023-04-01T05:54:32.708Z,99222.69
2023-04-01T05:57:00.677Z,99223.66
2023-04-01T05:59:28.673Z,99233.53
2023-04-01T06:01:59.403Z,99233.53
2023-04-01T06:04:34.000Z,99237.06
2023-04-01T06:07:01.983Z,99241.56
2023-04-01T06:09:31.960Z,99247.91
2023-04-01T06:12:40.921Z,99260.31
2023-04-01T06:15:25.538Z,99263.97
2023-04-01T06:18:27.718Z,99268.50
2023-04-01T06:21:03.801Z,99273.69
2023-04-01T06:23:47.373Z,99270.16
2023-04-01T06:26:26.193Z,99279.19
2023-04-01T06:29:21.499Z,99284.56
2023-04-01T06:32:11.412Z,99287.34
2023-04-01T06:34:55.715Z,99291.75
2023-04-01T06:37:47.035Z,99297.94
2023-04-01T06:40:36.765Z,99304.28
2023-04-01T06:43:17.244Z,99306.97
2023-04-01T06:45:56.754Z,99306.09
2023-04-01T06:48:44.057Z,99310.50
2023-04-01T06:51:25.702Z,99319.47
2023-04-01T06:54:02.572Z,99317.78
2023-04-01T06:56:31.605Z,99324.84
2023-04-01T06:59:02.210Z,99323.03
2023-04-01T07:01:35.008Z,99322.06
2023-04-01T07:04:08.187Z,99328.28
2023-04-01T07:06:45.602Z,99338.72
2023-04-01T07:09:18.403Z,99337.22
2023-04-01T07:11:47.350Z,99343.03
2023-04-01T07:14:20.824Z,99349.81
2023-04-01T07:16:53.911Z,99345.03
2023-04-01T07:19:31.454Z,99345.63
2023-04-01T07:22:04.314Z,99358.84
2023-04-01T07:24:36.233Z,99362.25
2023-04-01T07:27:10.951Z,99363.94
2023-04-01T07:29:38.700Z,99364.69
2023-04-01T07:32:24.583Z,99377.06
2023-04-01T07:35:19.561Z,99373.28
2023-04-01T07:38:04.692Z,99374.16
2023-04-01T07:40:42.692Z,99386.56
2023-04-01T07:43:32.687Z,99382.06
2023-04-01T07:46:08.775Z,99389.25
2023-04-01T07:48:46.136Z,99394.47
2023-04-01T07:51:19.290Z,99392.78
2023-04-01T07:53:54.092Z,99399.81
2023-04-01T07:56:29.056Z,99403.47
2023-04-01T07:59:07.709Z,99404.22
2023-04-01T08:01:42.550Z,99404.22
2023-04-01T08:04:27.559Z,99410.53
2023-04-01T08:07:01.387Z,99413.19
2023-04-01T08:09:45.455Z,99417.59
2023-04-01T08:12:24.327Z,99418.44
2023-04-01T08:15:06.799Z,99425.50
2023-04-01T08:17:37.563Z,99430.00
2023-04-01T08:20:26.102Z,99435.34
2023-04-01T08:22:59.564Z,99436.19
2023-04-01T08:25:32.420Z,99442.91
2023-04-01T08:28:05.889Z,99442.19
2023-04-01T08:30:43.201Z,99448.66
2023-04-01T08:33:17.903Z,99456.28
2023-04-01T08:35:52.628Z,99447.16
2023-04-01T08:38:26.996Z,99451.28
2023-04-01T08:41:01.803Z,99454.66
2023-04-01T08:43:49.892Z,99461.72
2023-04-01T08:46:39.488Z,99461.47
2023-04-01T08:49:18.308Z,99469.34
2023-04-01T08:52:11.960Z,99470.19
2023-04-01T08:55:06.719Z,99473.63
2023-04-01T08:57:52.106Z,99476.28
2023-04-01T09:00:32.440Z,99480.66
2023-04-01T09:03:41.044Z,99488.53
2023-04-01T09:06:28.991Z,99492.06
2023-04-01T09:09:18.581Z,99493.06
2023-04-01T09:12:19.864Z,99500.09
2023-04-01T09:15:14.181Z,99506.34
2023-04-01T09:18:10.061Z,99507.19
2023-04-01T09:20:48.415Z,99511.69
2023-04-01T09:23:34.107Z,99518.78
2023-04-01T09:26:16.052Z,99518.78
2023-04-01T09:28:53.693Z,99510.72
2023-04-01T09:31:43.974Z,99519.59
2023-04-01T09:34:39.145Z,99525.81
2023-04-01T09:37:27.871Z,99527.66
2023-04-01T09:40:16.168Z,99529.34
2023-04-01T09:42:46.552Z,99540.03
2023-04-01T09:45:30.014Z,99535.69
2023-04-01T09:48:13.429Z,99547.09
2023-04-01T09:50:53.457Z,99545.41
2023-04-01T09:53:35.889Z,99545.41
2023-04-01T09:56:22.379Z,99551.50
2023-04-01T09:59:22.561Z,99564.03
2023-04-01T10:02:22.472Z,99568.50
2023-04-01T10:05:27.780Z,99576.53
2023-04-01T10:08:29.333Z,99574.84
2023-04-01T10:11:32.005Z,99578.53
2023-04-01T10:14:29.080Z,99588.25
2023-04-01T10:17:15.396Z,99591.97
2023-04-01T10:20:04.659Z,99592.50
2023-04-01T10:23:23.448Z,99596.50
2023-04-01T10:26:14.567Z,99594.28
2023-04-01T10:29:33.815Z,99600.25
2023-04-01T10:32:44.855Z,99602.56
2023-04-01T10:36:02.324Z,99608.63
2023-04-01T10:39:00.922Z,99611.16
2023-04-01T10:42:10.315Z,99611.91
2023-04-01T10:45:23.286Z,99611.91
2023-04-01T10:48:08.869Z,99604.56
2023-04-01T10:51:16.915Z,99609.94
2023-04-01T10:54:17.567Z,99614.31
2023-04-01T10:56:54.035Z,99617.84
2023-04-01T10:59:47.597Z,99617.00
2023-04-01T11:03:06.228Z,99622.22
2023-04-01T11:06:13.127Z,99625.75
2023-04-01T11:09:24.721Z,99628.41
2023-04-01T11:12:33.236Z,99631.09
2023-04-01T11:15:42.727Z,99633.66
2023-04-01T11:18:42.737Z,99635.34
2023-04-01T11:21:41.416Z,99638.03
2023-04-01T11:24:33.373Z,99635.50
2023-04-01T11:27:14.724Z,99640.72
2023-04-01T11:30:13.608Z,99643.38
2023-04-01T11:32:55.116Z,99646.91
2023-04-01T11:35:57.841Z,99658.47
2023-04-01T11:38:42.509Z,99660.72
2023-04-01T11:41:28.324Z,99666.44
2023-04-01T11:44:13.229Z,99669.97
2023-04-01T11:46:51.191Z,99663.78
2023-04-01T11:49:33.413Z,99669.72
2023-04-01T11:52:17.411Z,99665.22
2023-04-01T11:55:01.789Z,99668.59
2023-04-01T11:57:46.126Z,99672.16
2023-04-01T12:00:28.440Z,99678.38
2023-04-01T12:03:12.804Z,99688.09
2023-04-01T12:05:49.842Z,99687.94
2023-04-01T12:08:41.357Z,99685.41
2023-04-01T12:11:18.709Z,99695.97
2023-04-01T12:13:55.196Z,99694.06
2023-04-01T12:16:35.035Z,99700.25
2023-04-01T12:19:11.159Z,99707.19
2023-04-01T12:21:54.309Z,99709.75
2023-04-01T12:24:38.175Z,99715.00
2023-04-01T12:27:31.957Z,99724.81
2023-04-01T12:30:23.932Z,99722.88
2023-04-01T12:33:02.058Z,99733.47
2023-04-01T12:35:38.837Z,99730.78
2023-04-01T12:38:21.130Z,99740.53
2023-04-01T12:40:57.341Z,99742.34
2023-04-01T12:44:00.466Z,99744.91
2023-04-01T12:46:41.284Z,99748.44
2023-04-01T12:49:27.293Z,99754.63
2023-04-01T12:52:11.228Z,99767.03
2023-04-01T12:55:23.389Z,99762.53
2023-04-01T12:58:24.652Z,99772.16
2023-04-01T13:01:21.774Z,99764.13
2023-04-01T13:04:18.236Z,99776.78
2023-04-01T13:06:58.451Z,99772.06
2023-04-01T13:09:42.441Z,99782.63
2023-04-01T13:12:32.129Z,99779.09
2023-04-01T13:15:15.077Z,99789.66
2023-04-01T13:17:52.471Z,99797.59
2023-04-01T13:20:33.787Z,99799.16
2023-04-01T13:23:16.615Z,99794.59
2023-04-01T13:25:59.201Z,99803.47
2023-04-01T13:28:41.750Z,99806.84
2023-04-01T13:31:24.326Z,99812.22
2023-04-01T13:34:02.357Z,99812.94
2023-04-01T13:36:43.829Z,99818.06
2023-04-01T13:39:31.828Z,99821.69
2023-04-01T13:42:29.528Z,99825.25
2023-04-01T13:45:03.773Z,99830.47
2023-04-01T13:47:58.946Z,99846.53
2023-04-01T13:50:49.365Z,99851.91
2023-04-01T13:53:33.120Z,99856.16
2023-04-01T13:56:18.707Z,99858.84
2023-04-01T13:59:08.419Z,99856.16
2023-04-01T14:01:46.559Z,99863.38
2023-04-01T14:04:39.141Z,99861.53
2023-04-01T14:07:21.168Z,99868.72
2023-04-01T14:10:10.231Z,99873.19
2023-04-01T14:12:44.683Z,99872.34
2023-04-01T14:15:34.447Z,99878.44
2023-04-01T14:18:22.066Z,99886.59
2023-04-01T14:21:04.481Z,99890.16
2023-04-01T14:23:54.067Z,99893.78
2023-04-01T14:26:44.454Z,99894.63
2023-04-01T14:29:24.196Z,99898.19
2023-04-01T14:32:04.551Z,99909.84
2023-04-01T14:34:56.905Z,99904.50
2023-04-01T14:37:42.824Z,99910.69
2023-04-01T14:40:24.210Z,99908.00
2023-04-01T14:43:22.971Z,99916.13
2023-04-01T14:46:18.641Z,99914.41
2023-04-01T14:48:55.103Z,99928.19
2023-04-01T14:51:30.915Z,99929.50
2023-04-01T14:54:07.458Z,99933.56
2023-04-01T14:56:44.071Z,99933.06
2023-04-01T14:59:28.146Z,99943.44
2023-04-01T15:02:02.757Z,99939.44
2023-04-01T15:04:52.327Z,99948.09
2023-04-01T15:08:03.035Z,99946.03
2023-04-01T15:11:05.558Z,99950.25
2023-04-01T15:14:01.060Z,99954.41
2023-04-01T15:16:39.040Z,99965.88
2023-04-01T15:19:17.977Z,99971.94
2023-04-01T15:22:17.725Z,99970.25
2023-04-01T15:24:49.934Z,99974.75
2023-04-01T15:27:30.541Z,99982.66
2023-04-01T15:30:20.540Z,99985.34
2023-04-01T15:33:04.138Z,99994.25
2023-04-01T15:35:42.859Z,100001.41
2023-04-01T15:38:24.112Z,99994.34
2023-04-01T15:41:00.580Z,100004.22
2023-04-01T15:43:39.234Z,100014.81
2023-04-01T15:46:28.711Z,100001.53
2023-04-01T15:49:10.492Z,100023.81
2023-04-01T15:51:57.537Z,100024.69
2023-04-01T15:54:49.887Z,100038.91
2023-04-01T15:57:27.904Z,100037.97
2023-04-01T16:00:09.352Z,100044.03
2023-04-01T16:02:46.220Z,100050.25
2023-04-01T16:05:36.518Z,100059.13
2023-04-01T16:08:43.727Z,100060.75
2023-04-01T16:11:21.641Z,100075.00
2023-04-01T16:13:58.528Z,100070.63
2023-04-01T16:16:38.908Z,100081.31
2023-04-01T16:19:23.318Z,100088.38
2023-04-01T16:21:57.018Z,100087.53
2023-04-01T16:24:35.416Z,100090.34
2023-04-01T16:27:07.840Z,100096.56
2023-04-01T16:29:43.388Z,100099.34
2023-04-01T16:32:23.749Z,100101.06
2023-04-01T16:35:06.057Z,100108.25
2023-04-01T16:37:45.744Z,100126.03
2023-04-01T16:40:26.243Z,100115.41
2023-04-01T16:42:55.908Z,100131.47
2023-04-01T16:45:35.263Z,100133.31
2023-04-01T16:48:13.364Z,100140.50
2023-04-01T16:50:54.411Z,100137.81
2023-04-01T16:53:33.174Z,100153.91
2023-04-01T16:56:11.111Z,100163.63
2023-04-01T16:58:44.067Z,100169.88
2023-04-01T17:01:16.214Z,100170.81
2023-04-01T17:03:46.898Z,100168.16
2023-04-01T17:06:27.254Z,100190.56
2023-04-01T17:09:13.222Z,100186.91
2023-04-01T17:11:47.313Z,100194.09
2023-04-01T17:14:23.172Z,100199.44
2023-04-01T17:17:02.194Z,100201.16
2023-04-01T17:19:43.007Z,100207.50
2023-04-01T17:22:23.895Z,100219.06
2023-04-01T17:25:06.500Z,100224.41
2023-04-01T17:27:47.856Z,100236.97
2023-04-01T17:30:25.749Z,100238.66
2023-04-01T17:33:26.032Z,100240.50
2023-04-01T17:36:00.688Z,100246.69
2023-04-01T17:39:03.812Z,100256.47
2023-04-01T17:41:44.745Z,100271.69
2023-04-01T17:44:23.869Z,100283.28
2023-04-01T17:47:15.400Z,100283.28
2023-04-01T17:49:53.010Z,100290.47
2023-04-01T17:52:29.684Z,100293.88
2023-04-01T17:55:06.806Z,100301.06
2023-04-01T17:57:47.996Z,100309.09
2023-04-01T18:00:23.993Z,100314.31
2023-04-01T18:03:04.479Z,100326.88
2023-04-01T18:05:41.644Z,100326.88
2023-04-01T18:08:27.050Z,100337.59
2023-04-01T18:11:07.821Z,100345.53
2023-04-01T18:14:04.731Z,100350.91
2023-04-01T18:16:49.291Z,100354.53
2023-04-01T18:19:27.993Z,100368.81
2023-04-01T18:22:00.748Z,100371.34
2023-04-01T18:24:35.537Z,100378.53
2023-04-01T18:27:06.337Z,100384.75
2023-04-01T18:29:42.476Z,100382.94
2023-04-01T18:32:19.881Z,100390.13
2023-04-01T18:35:01.747Z,100406.06
2023-04-01T18:37:34.146Z,100408.75
2023-04-01T18:40:15.928Z,100418.63
2023-04-01T18:42:55.264Z,100419.47
2023-04-01T18:45:30.928Z,100435.47
2023-04-01T18:48:10.538Z,100434.59
2023-04-01T18:50:43.783Z,100442.53
2023-04-01T18:53:20.592Z,100448.72
2023-04-01T18:55:51.745Z,100460.97
2023-04-01T18:58:28.256Z,100458.72
2023-04-01T19:01:22.547Z,100470.19
2023-04-01T19:04:14.721Z,100477.06
2023-04-01T19:06:49.962Z,100484.03
2023-04-01T19:09:28.577Z,100486.72
2023-04-01T19:12:22.096Z,100499.13
2023-04-01T19:14:57.872Z,100502.78
2023-04-01T19:17:45.041Z,100501.81
2023-04-01T19:20:25.822Z,100516.06
2023-04-01T19:23:30.448Z,100519.59
2023-04-01T19:26:02.740Z,100524.84
2023-04-01T19:28:37.967Z,100536.44
2023-04-01T19:31:26.476Z,100538.88
2023-04-01T19:34:13.226Z,100543.31
2023-04-01T19:36:48.546Z,100549.50
2023-04-01T19:39:30.756Z,100547.81
2023-04-01T19:42:08.410Z,100554.97
2023-04-01T19:44:48.491Z,100556.78
2023-04-01T19:47:24.675Z,100563.00
2023-04-01T19:50:06.686Z,100569.25
2023-04-01T19:52:38.458Z,100574.59
2023-04-01T19:55:18.885Z,100576.53
2023-04-01T19:57:52.328Z,100580.81
2023-04-01T20:00:26.070Z,100596.06
2023-04-01T20:03:07.459Z,100605.03
2023-04-01T20:05:46.816Z,100610.38
2023-04-01T20:08:22.242Z,100615.75
2023-04-01T20:11:02.572Z,100613.06
2023-04-01T20:13:36.236Z,100632.69
2023-04-01T20:16:07.024Z,100625.63
2023-04-01T20:18:46.364Z,100629.28
2023-04-01T20:21:36.824Z,100635.50
2023-04-01T20:24:16.944Z,100652.41
2023-04-01T20:26:51.274Z,100667.66
2023-04-01T20:29:44.293Z,100659.59
2023-04-01T20:32:30.545Z,100659.59
2023-04-01T20:35:17.680Z,100675.56
2023-04-01T20:37:55.865Z,100677.31
2023-04-01T20:40:36.438Z,100682.66
2023-04-01T20:43:26.775Z,100693.28
2023-04-01T20:46:00.351Z,100689.75
2023-04-01T20:48:59.927Z,100702.16
2023-04-01T20:51:31.945Z,100711.06
2023-04-01T20:54:19.499Z,100720.94
2023-04-01T20:57:00.121Z,100719.22
2023-04-01T20:59:43.567Z,100732.63
2023-04-01T21:02:26.109Z,100744.19
2023-04-01T21:05:24.674Z,100743.34
2023-04-01T21:07:56.525Z,100745.16
2023-04-01T21:10:43.442Z,100749.69
2023-04-01T21:13:28.207Z,100750.63
2023-04-01T21:16:10.802Z,100761.34
2023-04-01T21:18:58.968Z,100780.09
2023-04-01T21:22:00.046Z,100775.72
2023-04-01T21:24:49.554Z,100783.66
2023-04-01T21:27:36.018Z,100779.34
2023-04-01T21:30:21.203Z,100785.56
2023-04-01T21:33:04.388Z,100798.13
2023-04-01T21:35:42.458Z,100798.97
2023-04-01T21:38:24.161Z,100808.94
2023-04-01T21:41:10.881Z,100817.75
2023-04-01T21:44:03.345Z,100823.97
2023-04-01T21:46:52.268Z,100830.09
2023-04-01T21:49:40.996Z,100827.50
2023-04-01T21:52:27.034Z,100846.25
2023-04-01T21:55:30.974Z,100847.22
2023-04-01T21:58:32.337Z,100847.22
2023-04-01T22:01:17.890Z,100851.72
2023-04-01T22:04:16.128Z,100866.19
2023-04-01T22:06:51.000Z,100858.13
2023-04-01T22:09:27.164Z,100877.75
2023-04-01T22:12:02.540Z,100872.50
2023-04-01T22:14:36.622Z,100877.97
2023-04-01T22:17:14.680Z,100886.03
2023-04-01T22:19:57.614Z,100888.78
2023-04-01T22:22:32.929Z,100899.41
2023-04-01T22:25:08.272Z,100903.16
2023-04-01T22:27:43.655Z,100910.34
2023-04-01T22:30:18.448Z,100917.59
2023-04-01T22:32:50.955Z,100926.50
2023-04-01T22:35:35.795Z,100921.25
2023-04-01T22:38:16.700Z,100921.25
2023-04-01T22:40:53.838Z,100931.97
2023-04-01T22:43:30.233Z,100930.25
2023-04-01T22:46:25.566Z,100940.97
2023-04-01T22:48:58.926Z,100936.66
2023-04-01T22:51:42.418Z,100948.22
2023-04-01T22:54:17.899Z,100948.22
2023-04-01T22:56:49.995Z,100951.75
2023-04-01T22:59:25.567Z,100967.00
2023-04-01T23:01:58.143Z,100967.09
2023-04-01T23:04:33.774Z,100969.84
2023-04-01T23:07:06.018Z,100978.78
2023-04-01T23:09:37.925Z,100972.53
2023-04-01T23:12:15.591Z,100989.69
2023-04-01T23:14:48.859Z,100986.03
2023-04-01T23:17:50.167Z,100992.25
2023-04-01T23:20:32.928Z,100987.09
2023-04-01T23:23:23.412Z,100997.72
2023-04-01T23:26:02.242Z,101004.00
2023-04-01T23:28:44.557Z,101007.59
2023-04-01T23:31:40.596Z,101009.47
2023-04-01T23:34:33.264Z,101020.19
2023-04-01T23:37:03.784Z,101021.06
2023-04-01T23:39:36.710Z,101033.59
2023-04-01T23:42:07.913Z,101026.53
2023-04-01T23:44:39.238Z,101039.91
2023-04-01T23:47:10.044Z,101042.69
2023-04-01T23:49:43.973Z,101044.41
2023-04-01T23:52:19.268Z,101050.72
2023-04-01T23:54:51.595Z,101057.91
2023-04-01T23:57:23.995Z,101065.06
